Flight Track Log - Related Links

Times and Time Zones

All times are in EDT time to prevent confusion due to time zone crossing. See the RPA3435 flight status page for this flight to view local times or setup timezone preferences in your user account.

Time Position Orientation Groundspeed Altitude Reporting Facility
EDT Latitude Longitude Course Direction KTS MPH feet Rate Location/Type
Tue 09:13:38 PM 39.8667 -75.2833 37° Northeast 144 166 900  Level Philadelphia TRACON
Tue 09:14:38 PM 39.8167 -75.3167 207° Southwest 199 229 2,400 1,800 Climbing Philadelphia TRACON
Tue 09:15:38 PM 39.7667 -75.3500 207° Southwest 250 288 4,500 2,300 Climbing Philadelphia TRACON
Tue 09:16:00 PM 39.8167 -74.9099 90° East  Level FlightAware Approximate
Tue 09:16:38 PM 39.7333 -75.2833 123° Southeast 290 334 7,000  Level Philadelphia TRACON
Tue 09:17:00 PM 39.8031 -74.7989 105° East  Level FlightAware Approximate
Tue 09:17:38 PM 39.7500 -75.1667 79° East 294 338 9,200  Level Philadelphia TRACON
Tue 09:18:00 PM 39.7901 -74.6933 37° Northeast  Level FlightAware Approximate
Tue 09:19:28 PM 39.7653 -74.9811 84° East 333 383 12,000  Level New York Center
Tue 09:20:29 PM 39.7806 -74.8469 82° East 338 389 13,000 1,463 Climbing New York Center
Tue 09:21:31 PM 39.8014 -74.7186 78° East 351 404 15,000 1,785 Climbing New York Center
Tue 09:22:30 PM 39.8772 -74.6389 39° Northeast 324 373 16,600 1,513 Climbing New York Center
Tue 09:23:30 PM 39.9525 -74.5619 38° Northeast 329 379 18,000 1,373 Climbing New York Center
Tue 09:24:28 PM 40.0344 -74.4797 38° Northeast 352 405 19,300 1,322 Climbing New York Center
Tue 09:25:28 PM 40.1183 -74.3972 37° Northeast 367 422 20,600 1,240 Climbing New York Center
Tue 09:26:29 PM 40.2064 -74.3094 37° Northeast 377 434 21,800 1,279 Climbing New York Center
Tue 09:27:30 PM 40.2989 -74.2161 38° Northeast 398 458 23,200 1,388 Climbing New York Center
Tue 09:28:30 PM 40.4069 -74.1536 24° Northeast 416 479 24,600 1,475 Climbing New York Center
Tue 09:29:28 PM 40.5222 -74.1264 10° North 411 473 26,100 1,372 Climbing New York Center
Tue 09:31:38 PM 40.7747 -74.0703 10° North 437 503 28,900 911 Climbing Boston Center
Tue 09:32:39 PM 40.8967 -74.0422 10° North 440 506 29,000 49 Climbing Boston Center
Tue 09:33:41 PM 41.0156 -74.0128 11° North 438 504 29,000  Level Boston Center
Tue 09:34:42 PM 41.1369 -73.9856 10° North 438 504 29,000  Level Boston Center
Tue 09:35:43 PM 41.2592 -73.9561 10° North 443 510 29,000  Level Boston Center
Tue 09:36:44 PM 41.3808 -73.9275 10° North 443 510 29,000  Level Boston Center
Tue 09:37:44 PM 41.5022 -73.8994 10° North 443 510 29,000  Level Boston Center
Tue 09:38:45 PM 41.6239 -73.8700 10° North 443 510 29,000  Level Boston Center
Tue 09:39:46 PM 41.7461 -73.8417 10° North 443 510 29,000  Level Boston Center
Tue 09:40:47 PM 41.8678 -73.8122 10° North 440 506 29,000  Level Boston Center
Tue 09:41:48 PM 41.9928 -73.7836 10° North 449 517 29,000  Level Boston Center
Tue 09:42:48 PM 42.1175 -73.7539 10° North 453 521 29,000  Level Boston Center
Tue 09:43:49 PM 42.2669 -73.7164 11° North 453 521 29,000  Level Boston Center
Tue 09:44:49 PM 42.3914 -73.6881 10° North 453 521 29,000  Level Boston Center
Tue 09:45:52 PM 42.5161 -73.6561 11° North 453 521 29,000  Level Boston Center
Tue 09:46:53 PM 42.6419 -73.6256 10° North 453 521 29,000  Level Boston Center
Tue 09:47:55 PM 42.7664 -73.5958 10° North 453 521 29,000  Level Boston Center
Tue 09:48:56 PM 42.8922 -73.5644 10° North 454 522 29,000 -1,289 Level Boston Center
Tue 09:49:56 PM 43.0172 -73.5322 11° North 454 522 26,400 -2,400 Descending Boston Center
Tue 09:50:56 PM 43.1344 -73.5019 11° North 436 502 24,200 -1,512 Descending Boston Center
Tue 09:51:59 PM 43.2394 -73.4772 10° North 415 478 23,300 -1,659 Descending Boston Center
Tue 09:52:59 PM 43.3494 -73.4489 11° North 405 466 20,800 -2,262 Descending Boston Center
Tue 09:54:01 PM 43.4547 -73.4225 10° North 390 449 18,700 -2,410 Descending Boston Center
Tue 09:55:01 PM 43.5753 -73.3919 10° North 373 429 15,900 -2,529 Descending Boston Center
Tue 09:56:02 PM 43.6736 -73.3683 10° North 367 422 13,600 -2,262 Descending Boston Center
Tue 09:57:03 PM 43.7703 -73.3453 10° North 359 413 11,300 -1,918 Descending Boston Center
Tue 09:58:04 PM 43.8672 -73.3203 11° North 329 379 9,700 -1,388 Descending Boston Center
Tue 09:59:04 PM 43.9514 -73.3119 North 305 351 8,500 -836 Descending Boston Center
Tue 10:00:06 PM 44.0306 -73.3300 351° North 294 338 8,000 -244 Descending Boston Center
Tue 10:01:07 PM 44.1150 -73.3469 352° North 285 328 8,000  Level Boston Center
Tue 10:02:08 PM 44.1925 -73.3625 352° North 286 329 8,000 -443 Level Boston Center
Tue 10:03:09 PM 44.2694 -73.3769 352° North 285 328 7,100 -942 Descending Boston Center
Tue 10:04:09 PM 44.3483 -73.3628 North 265 305 6,100 -1,131 Descending Boston Center
Tue 10:05:11 PM 44.4114 -73.3603 North 232 267 4,800 -1,073 Descending Boston Center
Tue 10:06:12 PM 44.4725 -73.3647 357° North 223 257 3,900 -1,041 Descending Boston Center
Tue 10:07:12 PM 44.5308 -73.3633 North 213 245 2,700 -843 Descending Boston Center
Tue 10:08:13 PM 44.5572 -73.3072 57° Northeast 199 229 2,200 -397 Descending Boston Center
Tue 10:09:13 PM 44.5347 -73.2536 120° Southeast 164 189 1,900 -532 Descending Boston Center
Tue 10:10:17 PM 44.5081 -73.2103 131° Southeast 153 176 1,100 -726 Descending Boston Center
Tue 10:11:17 PM 44.4811 -73.1667 131° Southeast 141 162 400 -700 Descending Boston Center

Login

Don't have an account? Register now (free) for customized features, flight alerts, and more!